TimeCST,TemperatureF,Dew PointF,Humidity,Sea Level PressureIn,VisibilityMPH,Wind Direction,Wind SpeedMPH,Gust SpeedMPH,PrecipitationIn,Events,Conditions,WindDirDegrees,DateUTC
12:15 AM,42.8,32.0,66,30.12,10.0,SSW,8.1,-,N/A,,Clear,210,2012-11-06 06:15:00
12:35 AM,42.8,32.0,66,30.12,10.0,SW,6.9,-,N/A,,Clear,220,2012-11-06 06:35:00
12:55 AM,42.8,32.0,66,30.13,10.0,NNW,3.5,-,N/A,,Clear,340,2012-11-06 06:55:00
1:15 AM,44.6,32.0,61,30.12,10.0,SSW,8.1,-,N/A,,Clear,210,2012-11-06 07:15:00
1:35 AM,50.0,32.0,50,30.12,10.0,SW,9.2,-,N/A,,Clear,230,2012-11-06 07:35:00
1:55 AM,46.4,32.0,57,30.12,10.0,WSW,4.6,-,N/A,,Clear,250,2012-11-06 07:55:00
2:15 AM,42.8,32.0,66,30.12,10.0,SW,5.8,-,N/A,,Clear,230,2012-11-06 08:15:00
2:35 AM,44.6,32.0,61,30.13,10.0,WSW,8.1,-,N/A,,Clear,240,2012-11-06 08:35:00
2:55 AM,44.6,32.0,61,30.13,10.0,WSW,5.8,-,N/A,,Clear,250,2012-11-06 08:55:00
3:15 AM,44.6,32.0,61,30.13,10.0,SW,4.6,-,N/A,,Clear,230,2012-11-06 09:15:00
3:35 AM,42.8,32.0,66,30.13,10.0,Calm,Calm,-,N/A,,Clear,0,2012-11-06 09:35:00
3:55 AM,41.0,30.2,65,30.13,10.0,West,4.6,-,N/A,,Clear,260,2012-11-06 09:55:00
4:15 AM,39.2,30.2,70,30.13,10.0,WSW,6.9,-,N/A,,Clear,240,2012-11-06 10:15:00
4:35 AM,39.2,32.0,75,30.12,10.0,SW,10.4,-,N/A,,Clear,220,2012-11-06 10:35:00
4:55 AM,42.8,32.0,66,30.11,10.0,SW,11.5,-,N/A,,Clear,230,2012-11-06 10:55:00
5:15 AM,44.6,32.0,61,30.11,10.0,SW,11.5,-,N/A,,Clear,230,2012-11-06 11:15:00
5:35 AM,44.6,32.0,61,30.12,10.0,WSW,9.2,-,N/A,,Clear,240,2012-11-06 11:35:00
5:55 AM,44.6,32.0,61,30.11,10.0,WSW,12.7,-,N/A,,Clear,240,2012-11-06 11:55:00
6:15 AM,44.6,32.0,61,30.12,10.0,SW,10.4,-,N/A,,Clear,230,2012-11-06 12:15:00
6:35 AM,42.8,32.0,66,30.12,10.0,SW,8.1,-,N/A,,Clear,230,2012-11-06 12:35:00
6:55 AM,44.6,32.0,61,30.12,10.0,SW,11.5,-,N/A,,Clear,230,2012-11-06 12:55:00
7:15 AM,44.6,32.0,61,30.12,10.0,WSW,10.4,-,N/A,,Clear,240,2012-11-06 13:15:00
7:35 AM,44.6,32.0,61,30.13,10.0,SW,11.5,-,N/A,,Clear,230,2012-11-06 13:35:00
7:55 AM,46.4,32.0,57,30.14,10.0,SW,9.2,-,N/A,,Clear,230,2012-11-06 13:55:00
8:15 AM,48.2,32.0,54,30.16,10.0,WSW,9.2,-,N/A,,Clear,240,2012-11-06 14:15:00
8:35 AM,50.0,32.0,50,30.17,10.0,WSW,9.2,-,N/A,,Clear,240,2012-11-06 14:35:00
8:55 AM,51.8,32.0,47,30.18,10.0,WSW,11.5,-,N/A,,Clear,240,2012-11-06 14:55:00
9:15 AM,53.6,30.2,41,30.18,10.0,WSW,10.4,-,N/A,,Clear,240,2012-11-06 15:15:00
9:35 AM,57.2,32.0,38,30.19,10.0,West,4.6,-,N/A,,Clear,260,2012-11-06 15:35:00
9:55 AM,60.8,32.0,34,30.19,10.0,West,5.8,-,N/A,,Clear,280,2012-11-06 15:55:00
10:15 AM,62.6,32.0,32,30.19,10.0,NNW,6.9,-,N/A,,Clear,340,2012-11-06 16:15:00
10:35 AM,68.0,32.0,26,30.19,10.0,North,15.0,19.6,N/A,,Clear,360,2012-11-06 16:35:00
10:55 AM,68.0,32.0,26,30.19,10.0,North,11.5,-,N/A,,Clear,10,2012-11-06 16:55:00
11:35 AM,69.8,32.0,25,30.19,10.0,North,9.2,-,N/A,,Clear,10,2012-11-06 17:35:00
11:55 AM,69.8,33.8,27,30.19,10.0,North,9.2,16.1,N/A,,Clear,360,2012-11-06 17:55:00
12:15 PM,69.8,33.8,27,30.19,10.0,NNE,8.1,18.4,N/A,,Clear,30,2012-11-06 18:15:00
12:35 PM,71.6,33.8,25,30.18,10.0,North,9.2,-,N/A,,Clear,10,2012-11-06 18:35:00
12:55 PM,71.6,35.6,27,30.18,10.0,NE,11.5,17.3,N/A,,Clear,50,2012-11-06 18:55:00
1:15 PM,71.6,35.6,27,30.17,10.0,NNE,8.1,17.3,N/A,,Clear,30,2012-11-06 19:15:00
1:35 PM,71.6,35.6,27,30.16,10.0,NE,11.5,16.1,N/A,,Clear,40,2012-11-06 19:35:00
1:55 PM,73.4,35.6,25,30.16,10.0,NNE,12.7,-,N/A,,Clear,30,2012-11-06 19:55:00
2:35 PM,73.4,33.8,23,30.15,10.0,ENE,6.9,-,N/A,,Clear,60,2012-11-06 20:35:00
2:55 PM,73.4,33.8,23,30.14,10.0,NE,8.1,-,N/A,,Clear,50,2012-11-06 20:55:00
3:15 PM,73.4,33.8,23,30.15,10.0,NE,5.8,-,N/A,,Clear,40,2012-11-06 21:15:00
3:35 PM,73.4,33.8,23,30.15,10.0,NNE,9.2,-,N/A,,Clear,20,2012-11-06 21:35:00
3:55 PM,71.6,33.8,25,30.15,10.0,NE,8.1,-,N/A,,Clear,40,2012-11-06 21:55:00
4:15 PM,71.6,33.8,25,30.16,10.0,North,6.9,-,N/A,,Clear,360,2012-11-06 22:15:00
4:35 PM,71.6,33.8,25,30.16,10.0,NNE,3.5,-,N/A,,Clear,30,2012-11-06 22:35:00
4:55 PM,71.6,33.8,25,30.16,10.0,NNE,8.1,-,N/A,,Clear,20,2012-11-06 22:55:00
5:15 PM,69.8,33.8,27,30.17,10.0,NNE,5.8,-,N/A,,Clear,20,2012-11-06 23:15:00
5:35 PM,68.0,33.8,28,30.17,10.0,NNE,5.8,-,N/A,,Clear,20,2012-11-06 23:35:00
5:55 PM,64.4,33.8,32,30.17,10.0,NNE,4.6,-,N/A,,Clear,20,2012-11-06 23:55:00
6:15 PM,64.4,33.8,32,30.17,10.0,NNE,3.5,-,N/A,,Clear,30,2012-11-07 00:15:00
6:35 PM,60.8,33.8,36,30.18,10.0,Calm,Calm,-,N/A,,Clear,0,2012-11-07 00:35:00
6:55 PM,59.0,33.8,39,30.18,10.0,Calm,Calm,-,N/A,,Clear,0,2012-11-07 00:55:00
7:15 PM,60.8,33.8,36,30.18,10.0,ENE,3.5,-,N/A,,Clear,70,2012-11-07 01:15:00
7:35 PM,59.0,33.8,39,30.18,10.0,Calm,Calm,-,N/A,,Clear,0,2012-11-07 01:35:00
7:55 PM,53.6,33.8,47,30.18,10.0,East,3.5,-,N/A,,Clear,100,2012-11-07 01:55:00
8:15 PM,57.2,33.8,41,30.18,10.0,East,3.5,-,N/A,,Clear,80,2012-11-07 02:15:00
8:35 PM,55.4,35.6,47,30.19,10.0,East,4.6,-,N/A,,Clear,80,2012-11-07 02:35:00
8:55 PM,55.4,35.6,47,30.19,10.0,SE,3.5,-,N/A,,Clear,130,2012-11-07 02:55:00
9:15 PM,53.6,33.8,47,30.19,10.0,SSE,3.5,-,N/A,,Clear,160,2012-11-07 03:15:00
9:35 PM,50.0,33.8,54,30.19,10.0,SE,3.5,-,N/A,,Clear,140,2012-11-07 03:35:00
9:55 PM,50.0,33.8,54,30.19,10.0,Calm,Calm,-,N/A,,Clear,0,2012-11-07 03:55:00
10:15 PM,46.4,33.8,62,30.20,10.0,Calm,Calm,-,N/A,,Clear,0,2012-11-07 04:15:00
10:35 PM,46.4,33.8,62,30.20,10.0,Calm,Calm,-,N/A,,Clear,0,2012-11-07 04:35:00
10:55 PM,46.4,33.8,62,30.20,10.0,Calm,Calm,-,N/A,,Clear,0,2012-11-07 04:55:00
11:15 PM,42.8,32.0,66,30.20,10.0,SW,5.8,-,N/A,,Clear,230,2012-11-07 05:15:00
11:35 PM,44.6,33.8,66,30.19,10.0,Calm,Calm,-,N/A,,Clear,0,2012-11-07 05:35:00
11:55 PM,44.6,32.0,61,30.20,10.0,Calm,Calm,-,N/A,,Clear,0,2012-11-07 05:55:00